Time;durP1;ratioP1;P1;durP2;ratioP2;P2;SDS_P1;SDS_P2;PMS_P1;PMS_P2;Temp;Humidity;BMP_temperature;BMP_pressure;BME280_temperature;BME280_humidity;BME280_pressure;Samples;Min_cycle;Max_cycle;Signal;HPM_P1;HPM_P2
2022/01/01 00:02:00;;;;;;;30.33;21.05;;;;;;;-144.19;100.00;77051.66;5075705;28;20107;-90
2022/01/01 00:04:27;;;;;;;37.63;22.35;;;;;;;-144.19;100.00;77057.56;5076562;28;20052;-86
2022/01/01 00:06:54;;;;;;;33.83;20.85;;;;;;;-144.19;100.00;77051.66;5075910;28;20071;-89
2022/01/01 00:09:21;;;;;;;31.27;21.87;;;;;;;-144.19;100.00;77039.84;5092043;28;20051;-88
2022/01/01 00:11:47;;;;;;;37.05;22.70;;;;;;;-144.19;100.00;77051.66;5073695;28;20409;-88
2022/01/01 00:14:14;;;;;;;33.45;21.48;;;;;;;-144.19;100.00;77047.72;5073788;28;20048;-89
2022/01/01 00:16:43;;;;;;;35.88;22.55;;;;;;;-144.19;100.00;77057.56;5074460;28;20131;-89
2022/01/01 00:19:10;;;;;;;33.60;22.97;;;;;;;-144.19;100.00;77055.59;5092587;28;20059;-88
2022/01/01 00:21:36;;;;;;;34.55;21.88;;;;;;;-144.19;100.00;77059.53;5074968;28;20048;-89
2022/01/01 00:24:03;;;;;;;35.53;22.37;;;;;;;-144.19;100.00;77061.50;5074490;28;20055;-90
2022/01/01 00:26:29;;;;;;;43.35;25.48;;;;;;;-144.19;100.00;77057.56;5075179;28;20052;-90
2022/01/01 00:28:56;;;;;;;39.07;23.77;;;;;;;-144.19;100.00;77059.53;5075038;28;20498;-89
2022/01/01 00:31:22;;;;;;;41.38;24.40;;;;;;;-144.19;100.00;77069.38;5092464;28;20040;-89
2022/01/01 00:33:49;;;;;;;40.20;24.27;;;;;;;-144.19;100.00;77063.47;5090980;28;20051;-90
2022/01/01 00:36:17;;;;;;;33.10;22.70;;;;;;;-144.19;100.00;77071.34;5062570;28;20048;-90
2022/01/01 00:38:44;;;;;;;39.78;23.52;;;;;;;-144.19;100.00;77077.25;5063753;28;20047;-89
2022/01/01 00:41:10;;;;;;;42.28;23.45;;;;;;;-144.19;100.00;77079.22;5064565;28;20454;-90
2022/01/01 00:43:36;;;;;;;39.60;22.95;;;;;;;-144.19;100.00;77075.28;5069665;28;20051;-89
2022/01/01 00:46:03;;;;;;;37.47;22.57;;;;;;;-144.19;100.00;77081.19;5087392;28;20055;-90
2022/01/01 00:48:29;;;;;;;36.93;21.90;;;;;;;-144.19;100.00;77071.34;5085297;28;20044;-90
2022/01/01 00:51:16;;;;;;;37.13;23.85;;;;;;;-144.19;100.00;77085.13;5060073;28;20049;-90
2022/01/01 00:53:42;;;;;;;38.00;21.48;;;;;;;-144.19;100.00;77071.34;5053784;28;20514;-89
2022/01/01 00:56:08;;;;;;;32.97;22.10;;;;;;;-144.19;100.00;77083.16;5084407;28;20056;-89
2022/01/01 00:58:35;;;;;;;37.78;21.35;;;;;;;-144.19;100.00;77087.09;5074525;28;20055;-90
2022/01/01 01:01:01;;;;;;;37.40;21.52;;;;;;;-144.19;100.00;77071.34;5092125;28;20052;-89
2022/01/01 01:03:28;;;;;;;38.42;22.52;;;;;;;-144.19;100.00;77093.00;5073401;28;20138;-89
2022/01/01 01:05:55;;;;;;;35.28;22.67;;;;;;;-144.19;100.00;77081.19;5092164;28;20048;-90
2022/01/01 01:08:21;;;;;;;37.53;23.02;;;;;;;-144.19;100.00;77081.19;5074090;28;20056;-90
2022/01/01 01:10:48;;;;;;;44.83;24.90;;;;;;;-144.19;100.00;77094.97;5074331;28;20054;-89
2022/01/01 01:13:17;;;;;;;44.90;23.58;;;;;;;-144.19;100.00;77091.03;5073657;28;20052;-90
2022/01/01 01:15:44;;;;;;;44.00;25.27;;;;;;;-144.19;100.00;77098.91;5074714;28;20051;-89
2022/01/01 01:18:12;;;;;;;43.88;27.67;;;;;;;-144.19;100.00;77073.31;5091962;28;20071;-89
2022/01/01 01:20:38;;;;;;;;;;;;;;;-144.19;100.00;77077.25;5074340;28;20093;-90
2022/01/01 01:23:05;;;;;;;51.53;30.48;;;;;;;-144.19;100.00;77075.28;5074064;28;20374;-90
2022/01/01 01:25:39;;;;;;;48.10;30.40;;;;;;;-144.19;100.00;77065.44;5074056;28;20425;-89
2022/01/01 01:28:08;;;;;;;53.90;34.53;;;;;;;-144.19;100.00;77069.38;5073978;28;20058;-89
2022/01/01 01:30:36;;;;;;;55.97;32.92;;;;;;;-144.19;100.00;77067.41;5091718;28;20421;-91
2022/01/01 01:33:04;;;;;;;58.38;34.35;;;;;;;-144.19;100.00;77089.06;5091365;28;20058;-90
2022/01/01 01:35:32;;;;;;;55.13;32.38;;;;;;;-144.19;100.00;77093.00;5092364;28;20075;-89
2022/01/01 01:37:58;;;;;;;;;;;;;;;-144.19;100.00;77112.69;5073398;28;20494;-90
2022/01/01 01:40:25;;;;;;;57.55;33.75;;;;;;;-144.19;100.00;77102.84;5073556;28;19920;-89
2022/01/01 01:42:52;;;;;;;;;;;;;;;-144.19;100.00;77104.81;5074103;28;20150;-90
2022/01/01 01:45:21;;;;;;;50.47;31.15;;;;;;;-144.19;100.00;77108.75;5081616;28;20384;-90
2022/01/01 01:47:50;;;;;;;50.00;30.88;;;;;;;-144.19;100.00;77108.75;5094109;28;20402;-90
2022/01/01 01:50:18;;;;;;;53.35;31.48;;;;;;;-144.19;100.00;77106.78;5094520;28;20050;-89
2022/01/01 01:52:49;;;;;;;52.17;29.90;;;;;;;-144.19;100.00;77118.59;5093140;28;20047;-89
2022/01/01 01:55:16;;;;;;;49.83;29.27;;;;;;;-144.19;100.00;77110.72;5079146;28;20048;-89
2022/01/01 01:57:42;;;;;;;44.58;27.92;;;;;;;-144.19;100.00;77122.53;5069504;28;20060;-90
2022/01/01 02:00:44;;;;;;;47.93;27.57;;;;;;;-144.19;100.00;77114.66;5053048;28;20052;-89
2022/01/01 02:03:09;;;;;;;53.85;28.65;;;;;;;-144.19;100.00;77118.59;5069633;28;20063;-90
2022/01/01 02:05:37;;;;;;;47.08;26.63;;;;;;;-144.19;100.00;77122.53;5070947;28;20489;-90
2022/01/01 02:08:05;;;;;;;44.20;27.13;;;;;;;-144.19;100.00;77130.41;5071088;28;20058;-90
2022/01/01 02:10:35;;;;;;;43.35;26.15;;;;;;;-144.19;100.00;77134.34;5071707;28;20053;-89
2022/01/01 02:13:17;;;;;;;46.95;24.83;;;;;;;-144.19;100.00;77142.22;5070789;28;20056;-89
2022/01/01 02:16:00;;;;;;;39.97;26.08;;;;;;;-144.19;100.00;77122.53;5091434;28;20044;-89
2022/01/01 02:18:26;;;;;;;40.75;23.50;;;;;;;-144.19;100.00;77118.59;5091543;28;20097;-90
2022/01/01 02:20:56;;;;;;;42.72;23.52;;;;;;;-144.19;100.00;77126.47;5073502;28;20062;-89
2022/01/01 02:23:25;;;;;;;44.65;24.15;;;;;;;-144.19;100.00;77116.63;5072544;28;20044;-90
2022/01/01 02:25:53;;;;;;;39.63;25.17;;;;;;;-144.19;100.00;77130.41;5091336;28;20052;-90
2022/01/01 02:28:21;;;;;;;45.92;23.70;;;;;;;-144.19;100.00;77114.66;5072614;28;20055;-90
2022/01/01 02:30:49;;;;;;;35.10;23.35;;;;;;;-144.19;100.00;77128.44;5073295;28;20059;-90
2022/01/01 02:33:16;;;;;;;44.65;24.55;;;;;;;-144.19;100.00;77122.53;5071805;28;20389;-90
2022/01/01 02:35:43;;;;;;;41.15;23.90;;;;;;;-144.19;100.00;77108.75;5072994;28;20052;-90
2022/01/01 02:38:09;;;;;;;47.23;25.80;;;;;;;-144.19;100.00;77122.53;5091060;28;20545;-89
2022/01/01 02:40:38;;;;;;;34.53;22.33;;;;;;;-144.19;100.00;77118.59;5072736;28;20047;-90
2022/01/01 02:43:05;;;;;;;42.63;25.27;;;;;;;-144.19;100.00;77104.81;5072864;28;20063;-90
2022/01/01 02:45:31;;;;;;;54.22;26.23;;;;;;;-144.19;100.00;77110.72;5073698;28;20055;-90
2022/01/01 02:47:58;;;;;;;44.10;24.88;;;;;;;-144.19;100.00;77116.63;5090915;28;20460;-89
2022/01/01 02:50:24;;;;;;;43.30;22.60;;;;;;;-144.19;100.00;77110.72;5091819;28;20425;-89
2022/01/01 02:52:52;;;;;;;43.67;24.13;;;;;;;-144.19;100.00;77098.91;5089998;28;20048;-89
2022/01/01 02:55:18;;;;;;;48.55;26.17;;;;;;;-144.19;100.00;77091.03;5067274;28;20040;-89
2022/01/01 02:57:45;;;;;;;47.47;26.77;;;;;;;-144.19;100.00;77087.09;5052936;28;20058;-90
2022/01/01 03:00:11;;;;;;;49.58;26.48;;;;;;;-144.19;100.00;77106.78;5070069;28;20494;-91
2022/01/01 03:02:39;;;;;;;50.38;26.55;;;;;;;-144.19;100.00;77096.94;5058246;28;20506;-89
2022/01/01 03:05:07;;;;;;;44.30;25.20;;;;;;;-144.19;100.00;77110.72;5073252;28;20040;-90
2022/01/01 03:07:38;;;;;;;;;;;;;;;-144.19;100.00;77122.53;5072972;28;20409;-90
2022/01/01 03:10:05;;;;;;;46.53;25.00;;;;;;;-144.19;100.00;77114.66;5089690;28;19920;-90
2022/01/01 03:12:32;;;;;;;46.88;25.83;;;;;;;-144.19;100.00;77120.56;5071962;28;20048;-89
2022/01/01 03:14:58;;;;;;;48.00;25.70;;;;;;;-144.19;100.00;77126.47;5073507;28;20054;-89
2022/01/01 03:17:24;;;;;;;52.80;27.73;;;;;;;-144.19;100.00;77100.88;5075984;28;20290;-89
2022/01/01 03:19:51;;;;;;;44.25;26.50;;;;;;;-144.19;100.00;77146.16;5075955;28;20052;-90
2022/01/01 03:22:17;;;;;;;43.70;24.98;;;;;;;-144.19;100.00;77148.13;5093965;28;20044;-91
2022/01/01 03:24:43;;;;;;;49.65;27.38;;;;;;;-144.19;100.00;77142.22;5094063;28;20054;-89
2022/01/01 03:27:10;;;;;;;51.30;28.15;;;;;;;-144.19;100.00;77150.09;5094194;28;20052;-90
2022/01/01 03:29:36;;;;;;;47.10;26.35;;;;;;;-144.19;100.00;77142.22;5075675;28;20374;-90
2022/01/01 03:32:03;;;;;;;47.92;29.88;;;;;;;-144.19;100.00;77128.44;5092874;28;20482;-90
2022/01/01 03:34:30;;;;;;;55.35;28.88;;;;;;;-144.19;100.00;77142.22;5075269;28;20059;-89
2022/01/01 03:36:57;;;;;;;49.90;28.55;;;;;;;-144.19;100.00;77142.22;5094218;28;20044;-90
2022/01/01 03:39:23;;;;;;;52.67;30.27;;;;;;;-144.19;100.00;77138.28;5075298;28;20443;-90
2022/01/01 03:41:50;;;;;;;49.83;30.40;;;;;;;-144.19;100.00;77157.97;5075858;28;20055;-89
2022/01/01 03:44:16;;;;;;;50.87;29.97;;;;;;;-144.19;100.00;77150.09;5076108;28;20043;-89
2022/01/01 03:46:43;;;;;;;56.30;31.15;;;;;;;-144.19;100.00;77150.09;5076403;28;20051;-89
2022/01/01 03:49:09;;;;;;;50.60;30.13;;;;;;;-144.19;100.00;77152.06;5093906;28;20086;-89
2022/01/01 03:51:36;;;;;;;58.27;31.70;;;;;;;-144.19;100.00;77140.25;5076005;28;20419;-90
2022/01/01 03:54:03;;;;;;;56.55;31.60;;;;;;;-144.19;100.00;77152.06;5074922;28;20054;-90
2022/01/01 03:56:29;;;;;;;54.88;30.02;;;;;;;-144.19;100.00;77150.09;5075887;28;20052;-90
2022/01/01 03:58:55;;;;;;;60.00;31.90;;;;;;;-144.19;100.00;77150.09;5075036;28;20047;-89
2022/01/01 04:01:22;;;;;;;59.22;32.90;;;;;;;-144.19;100.00;77142.22;5075706;28;20126;-91
2022/01/01 04:03:49;;;;;;;52.22;33.15;;;;;;;-144.19;100.00;77142.22;5075120;28;20109;-89
2022/01/01 04:06:15;;;;;;;48.60;31.63;;;;;;;-144.19;100.00;77138.28;5075468;28;20048;-90
2022/01/01 04:08:41;;;;;;;49.40;29.40;;;;;;;-144.19;100.00;77161.91;5093215;28;20687;-90
2022/01/01 04:11:08;;;;;;;60.65;32.42;;;;;;;-144.19;100.00;77142.22;5074715;28;20048;-90
2022/01/01 04:13:34;;;;;;;59.97;33.22;;;;;;;-144.19;100.00;77142.22;5074550;28;20059;-90
2022/01/01 04:16:01;;;;;;;62.88;33.83;;;;;;;-144.19;100.00;77150.09;5075182;28;20052;-88
2022/01/01 04:18:37;;;;;;;57.83;33.50;;;;;;;-144.19;100.00;77152.06;5075001;28;20044;-89
2022/01/01 04:21:10;;;;;;;59.70;31.95;;;;;;;-144.19;100.00;77152.06;5093137;28;20063;-90
2022/01/01 04:23:38;;;;;;;59.95;33.33;;;;;;;-144.19;100.00;77169.78;5074498;28;20429;-90
2022/01/01 04:26:07;;;;;;;66.85;33.67;;;;;;;-144.19;100.00;77150.09;5074189;28;20052;-90
2022/01/01 04:28:35;;;;;;;60.80;35.75;;;;;;;-144.19;100.00;77171.75;5074992;28;20048;-90
2022/01/01 04:31:02;;;;;;;61.20;35.25;;;;;;;-144.19;100.00;77173.72;5074269;28;20048;-91
2022/01/01 04:33:29;;;;;;;63.08;34.17;;;;;;;-144.19;100.00;77159.94;5074362;28;20083;-90
2022/01/01 04:35:55;;;;;;;65.13;34.20;;;;;;;-144.19;100.00;77138.28;5074674;28;20048;-89
2022/01/01 04:38:42;;;;;;;63.07;34.53;;;;;;;-144.19;100.00;77142.22;5075016;28;20052;-90
2022/01/01 04:41:12;;;;;;;59.58;35.35;;;;;;;-144.19;100.00;77142.22;5074884;28;20150;-90
2022/01/01 04:43:45;;;;;;;68.00;36.45;;;;;;;-144.19;100.00;77146.16;5075573;28;20138;-90
2022/01/01 04:46:12;;;;;;;62.40;35.05;;;;;;;-144.19;100.00;77152.06;5074607;28;20128;-90
2022/01/01 04:48:40;;;;;;;63.07;34.27;;;;;;;-144.19;100.00;77167.81;5074139;28;20055;-89
2022/01/01 04:51:08;;;;;;;55.00;33.63;;;;;;;-144.19;100.00;77157.97;5074920;28;20282;-90
2022/01/01 04:53:35;;;;;;;62.75;37.17;;;;;;;-144.19;100.00;77171.75;5091555;28;20044;-90
2022/01/01 04:56:06;;;;;;;62.95;36.95;;;;;;;-144.19;100.00;77177.66;5062983;28;20056;-89
2022/01/01 04:58:33;;;;;;;60.80;36.70;;;;;;;-144.19;100.00;77169.78;5053833;28;20510;-90
2022/01/01 05:01:00;;;;;;;59.75;35.13;;;;;;;-144.19;100.00;77183.56;5055392;28;20056;-90
2022/01/01 05:03:26;;;;;;;63.13;36.03;;;;;;;-144.19;100.00;77173.72;5053896;28;20139;-90
2022/01/01 05:05:53;;;;;;;63.10;36.97;;;;;;;-144.19;100.00;77165.84;5054096;28;20529;-89
2022/01/01 05:08:19;;;;;;;56.00;35.92;;;;;;;-144.19;100.00;77169.78;5054277;28;20048;-89
2022/01/01 05:10:46;;;;;;;59.07;35.43;;;;;;;-144.19;100.00;77177.66;5054459;28;20049;-91
2022/01/01 05:13:14;;;;;;;63.85;35.78;;;;;;;-144.19;100.00;77185.53;5053696;28;20050;-89
2022/01/01 05:15:40;;;;;;;64.65;37.67;;;;;;;-144.19;100.00;77185.53;5053961;28;20088;-90
2022/01/01 05:18:06;;;;;;;66.38;36.25;;;;;;;-144.19;100.00;77179.63;5055872;28;20470;-91
2022/01/01 05:20:33;;;;;;;63.20;36.05;;;;;;;-144.19;100.00;77193.41;5075001;28;20054;-90
2022/01/01 05:22:59;;;;;;;64.90;37.25;;;;;;;-144.19;100.00;77181.59;5091892;28;20055;-89
2022/01/01 05:25:26;;;;;;;70.90;37.87;;;;;;;-144.19;100.00;77173.72;5073738;28;20426;-91
2022/01/01 05:27:52;;;;;;;60.90;36.97;;;;;;;-144.19;100.00;77181.59;5073906;28;20052;-90
2022/01/01 05:30:18;;;;;;;64.55;37.05;;;;;;;-144.19;100.00;77177.66;5090431;28;20047;-90
2022/01/01 05:32:45;;;;;;;57.88;35.95;;;;;;;-144.19;100.00;77187.50;5062757;28;20403;-90
2022/01/01 05:35:11;;;;;;;69.55;36.85;;;;;;;-144.19;100.00;77185.53;5062637;28;20143;-90
2022/01/01 05:37:38;;;;;;;66.00;38.05;;;;;;;-144.19;100.00;77181.59;5065558;28;20534;-90
2022/01/01 05:40:05;;;;;;;58.05;36.90;;;;;;;-144.19;100.00;77181.59;5063165;28;20074;-90
2022/01/01 05:42:32;;;;;;;64.95;37.13;;;;;;;-144.19;100.00;77181.59;5065539;28;20139;-90
2022/01/01 05:44:58;;;;;;;69.28;37.15;;;;;;;-144.19;100.00;77183.56;5064829;28;20044;-90
2022/01/01 05:47:25;;;;;;;66.37;37.37;;;;;;;-144.19;100.00;77181.59;5060871;28;20494;-90
2022/01/01 05:49:52;;;;;;;63.88;37.75;;;;;;;-144.19;100.00;77181.59;5073993;28;20048;-90
2022/01/01 05:52:18;;;;;;;69.43;38.47;;;;;;;-144.19;100.00;77185.53;5073196;28;20409;-89
2022/01/01 05:54:45;;;;;;;61.08;37.30;;;;;;;-144.19;100.00;77193.41;5073411;28;20291;-90
2022/01/01 05:57:11;;;;;;;71.03;38.88;;;;;;;-144.19;100.00;77181.59;5073324;28;20070;-91
2022/01/01 05:59:40;;;;;;;63.38;38.67;;;;;;;-144.19;100.00;77191.44;5073156;28;20048;-89
2022/01/01 06:02:07;;;;;;;60.72;37.00;;;;;;;-144.19;100.00;77197.34;5072625;28;20043;-90
2022/01/01 06:04:33;;;;;;;66.85;39.22;;;;;;;-144.19;100.00;77193.41;5073114;28;20051;-90
2022/01/01 06:07:00;;;;;;;68.23;37.37;;;;;;;-144.19;100.00;77205.22;5073454;28;20048;-90
2022/01/01 06:09:26;;;;;;;57.28;35.90;;;;;;;-144.19;100.00;77205.22;5072540;28;20493;-90
2022/01/01 06:11:53;;;;;;;60.63;37.08;;;;;;;-144.19;100.00;77209.16;5072733;28;20055;-90
2022/01/01 06:14:21;;;;;;;57.57;34.87;;;;;;;-144.19;100.00;77205.22;5072796;28;20052;-90
2022/01/01 06:16:48;;;;;;;55.22;35.28;;;;;;;-144.19;100.00;77215.06;5072618;28;20044;-90
2022/01/01 06:19:14;;;;;;;;;;;;;;;-144.19;100.00;77203.25;5071333;28;20052;-89
2022/01/01 06:21:41;;;;;;;66.53;37.28;;;;;;;-144.19;100.00;77217.03;5053142;28;20283;-90
2022/01/01 06:24:07;;;;;;;66.30;37.00;;;;;;;-144.19;100.00;77199.31;5052518;28;20055;-90
2022/01/01 06:26:37;;;;;;;64.43;35.58;;;;;;;-144.19;100.00;77209.16;5059485;28;20063;-90
2022/01/01 06:29:04;;;;;;;57.73;35.43;;;;;;;-144.19;100.00;77177.66;5072905;28;20052;-89
2022/01/01 06:31:31;;;;;;;62.80;35.75;;;;;;;-144.19;100.00;77183.56;5072582;28;20520;-90
2022/01/01 06:33:57;;;;;;;62.23;33.90;;;;;;;-144.19;100.00;77219.00;5072110;28;20044;-89
2022/01/01 06:36:25;;;;;;;54.95;32.88;;;;;;;-144.19;100.00;77244.59;5073329;28;20282;-90
2022/01/01 06:38:51;;;;;;;50.83;32.28;;;;;;;-144.19;100.00;77228.84;5072425;28;20048;-90
2022/01/01 06:41:19;;;;;;;54.30;31.20;;;;;;;-144.19;100.00;77219.00;5112871;22;20056;-85
2022/01/01 06:43:46;;;;;;;53.63;30.70;;;;;;;-144.19;100.00;77217.03;5091453;28;20178;-89
2022/01/01 06:46:13;;;;;;;58.67;30.43;;;;;;;-144.19;100.00;77220.97;5092586;28;20048;-85
2022/01/01 06:48:39;;;;;;;57.88;31.27;;;;;;;-144.19;100.00;77224.91;5073091;28;20058;-87
2022/01/01 06:51:05;;;;;;;50.03;29.55;;;;;;;-144.19;100.00;77232.78;5076267;28;20054;-87
2022/01/01 06:53:32;;;;;;;54.60;30.42;;;;;;;-144.19;100.00;77219.00;5076792;28;20051;-86
2022/01/01 06:55:59;;;;;;;55.85;29.50;;;;;;;-144.19;100.00;77224.91;5076802;28;20526;-87
2022/01/01 06:58:26;;;;;;;53.47;29.35;;;;;;;-144.19;100.00;77224.91;5077663;28;20059;-86
2022/01/01 07:00:52;;;;;;;56.90;30.10;;;;;;;-144.19;100.00;77236.72;5061220;28;20068;-88
2022/01/01 07:03:25;;;;;;;58.37;32.00;;;;;;;-144.19;100.00;77224.91;5036832;28;20049;-86
2022/01/01 07:05:51;;;;;;;58.88;31.85;;;;;;;-144.19;100.00;77220.97;5040851;28;20081;-86
2022/01/01 07:08:18;;;;;;;60.20;29.35;;;;;;;-144.19;100.00;77238.69;5037811;28;20048;-89
2022/01/01 07:10:45;;;;;;;51.78;29.92;;;;;;;-144.19;100.00;77238.69;5054023;28;20055;-89
2022/01/01 07:13:13;;;;;;;56.83;30.92;;;;;;;-144.19;100.00;77222.94;5035046;28;20084;-88
2022/01/01 07:15:39;;;;;;;61.22;31.48;;;;;;;-144.19;100.00;77224.91;5054042;28;20055;-86
2022/01/01 07:18:06;;;;;;;57.20;32.43;;;;;;;-144.19;100.00;77222.94;5045872;28;20052;-87
2022/01/01 07:20:32;;;;;;;62.20;32.63;;;;;;;-144.19;100.00;77220.97;5056832;28;20048;-88
2022/01/01 07:22:59;;;;;;;61.33;31.90;;;;;;;-144.19;100.00;77246.56;5056020;28;20536;-87
2022/01/01 07:25:25;;;;;;;59.20;30.95;;;;;;;-144.19;100.00;77240.66;5056297;28;20049;-88
2022/01/01 07:27:52;;;;;;;57.15;31.30;;;;;;;-144.19;100.00;77242.63;5074533;28;20078;-86
2022/01/01 07:30:18;;;;;;;51.38;30.55;;;;;;;-144.19;100.00;77236.72;5056107;28;20078;-87
2022/01/01 07:32:49;;;;;;;58.30;30.83;;;;;;;-144.19;100.00;77242.63;5055814;28;20055;-88
2022/01/01 07:35:18;;;;;;;62.65;33.25;;;;;;;-144.19;100.00;77250.50;5062530;28;20051;-85
2022/01/01 07:37:45;;;;;;;52.85;29.67;;;;;;;-144.19;100.00;77256.41;5094328;28;20456;-87
2022/01/01 07:40:13;;;;;;;48.37;30.47;;;;;;;-144.19;100.00;77256.41;5094427;28;20048;-87
2022/01/01 07:42:41;;;;;;;63.50;32.42;;;;;;;-144.19;100.00;77256.41;5083806;28;20116;-87
2022/01/01 07:45:09;;;;;;;63.83;30.55;;;;;;;-144.19;100.00;77268.22;5056652;28;20040;-88
2022/01/01 07:47:36;;;;;;;49.88;28.38;;;;;;;-144.19;100.00;77276.09;5056051;28;20055;-88
2022/01/01 07:50:07;;;;;;;60.72;32.17;;;;;;;-144.19;100.00;77260.34;5073502;28;20174;-87
2022/01/01 07:52:33;;;;;;;53.28;29.02;;;;;;;-144.19;100.00;77276.09;5041468;28;20053;-88
2022/01/01 07:55:00;;;;;;;51.58;29.42;;;;;;;-144.19;100.00;77280.03;5040954;28;20534;-85
2022/01/01 07:57:27;;;;;;;49.28;27.98;;;;;;;-144.19;100.00;77276.09;5094080;28;20429;-88
2022/01/01 07:59:54;;;;;;;53.35;27.92;;;;;;;-144.19;100.00;77280.03;5075383;28;20044;-87
2022/01/01 08:02:20;;;;;;;46.78;27.90;;;;;;;-144.19;100.00;77262.31;5074254;28;20055;-86
2022/01/01 08:04:47;;;;;;;49.87;28.17;;;;;;;-144.19;100.00;77268.22;5093549;28;20055;-87
2022/01/01 08:07:13;;;;;;;44.15;26.77;;;;;;;-144.19;100.00;77283.97;5094058;28;20282;-87
2022/01/01 08:09:59;;;;;;;48.70;27.58;;;;;;;-144.19;100.00;77283.97;5049895;28;20636;-88
2022/01/01 08:12:26;;;;;;;50.38;26.55;;;;;;;-144.19;100.00;77282.00;5073967;28;20055;-89
2022/01/01 08:14:56;;;;;;;47.08;27.25;;;;;;;-144.19;100.00;77262.31;5055029;28;20044;-86
2022/01/01 08:17:24;;;;;;;43.45;25.02;;;;;;;-144.19;100.00;77287.91;5055837;28;20181;-88
2022/01/01 08:19:51;;;;;;;49.10;25.52;;;;;;;-144.19;100.00;77272.16;5073088;28;20047;-87
2022/01/01 08:22:18;;;;;;;47.90;26.25;;;;;;;-144.19;100.00;77270.19;5055639;28;20422;-88
2022/01/01 08:24:45;;;;;;;47.63;25.27;;;;;;;-144.19;100.00;77270.19;5055082;28;20048;-88
2022/01/01 08:27:12;;;;;;;43.55;23.20;;;;;;;-144.19;100.00;77278.06;5051266;28;20287;-87
2022/01/01 08:29:38;;;;;;;44.83;24.20;;;;;;;-144.19;100.00;77258.38;5055129;28;20495;-88
2022/01/01 08:32:05;;;;;;;40.92;23.23;;;;;;;-144.19;100.00;77250.50;5055611;28;20056;-91
2022/01/01 08:34:31;;;;;;;39.67;23.05;;;;;;;-144.19;100.00;77260.34;5055578;28;20044;-88
2022/01/01 08:36:58;;;;;;;42.08;22.30;;;;;;;-144.19;100.00;77282.00;5083394;28;20048;-88
2022/01/01 08:39:24;;;;;;;36.35;22.13;;;;;;;-144.19;100.00;77260.34;5066628;28;20103;-88
2022/01/01 08:41:51;;;;;;;36.97;20.87;;;;;;;-144.19;100.00;77254.44;5074944;28;20075;-87
2022/01/01 08:44:17;;;;;;;39.75;19.60;;;;;;;-144.19;100.00;77260.34;5085547;28;20293;-88
2022/01/01 08:46:43;;;;;;;40.33;20.35;;;;;;;-144.19;100.00;77258.38;5072680;28;20056;-88
2022/01/01 08:49:10;;;;;;;41.53;20.77;;;;;;;-144.19;100.00;77246.56;5069602;28;20048;-91
2022/01/01 08:51:40;;;;;;;31.25;19.48;;;;;;;-144.19;100.00;77254.44;5074409;28;20050;-90
2022/01/01 08:54:06;;;;;;;29.13;18.20;;;;;;;-144.19;100.00;77242.63;5073853;28;20494;-91
2022/01/01 08:56:33;;;;;;;31.98;16.70;;;;;;;-144.19;100.00;77260.34;5074761;28;20074;-88
2022/01/01 08:59:00;;;;;;;34.85;16.95;;;;;;;-144.19;100.00;77248.53;5073366;28;20352;-88
2022/01/01 09:01:27;;;;;;;31.33;17.00;;;;;;;-144.19;100.00;77240.66;5073637;28;20051;-89
2022/01/01 09:03:54;;;;;;;32.33;16.35;;;;;;;-144.19;100.00;77234.75;5076428;28;20109;-88
2022/01/01 09:06:21;;;;;;;26.20;13.93;;;;;;;-144.19;100.00;77252.47;5075453;28;20395;-86
2022/01/01 09:08:47;;;;;;;37.20;17.80;;;;;;;-144.19;100.00;77224.91;5092721;28;20066;-90
2022/01/01 09:11:14;;;;;;;34.97;16.13;;;;;;;-144.19;100.00;77234.75;5074982;28;20064;-88
2022/01/01 09:13:43;;;;;;;29.30;16.17;;;;;;;-144.19;100.00;77224.91;5065379;28;20044;-86
2022/01/01 09:16:15;;;;;;;31.77;14.63;;;;;;;-144.19;100.00;77220.97;5060997;28;20048;-87
2022/01/01 09:18:43;;;;;;;30.92;14.23;;;;;;;-144.19;100.00;77224.91;5058306;28;20604;-88
2022/01/01 09:21:10;;;;;;;25.05;12.82;;;;;;;-144.19;100.00;77220.97;5060171;28;20605;-88
2022/01/01 09:23:37;;;;;;;27.67;13.07;;;;;;;-144.19;100.00;77224.91;5070442;28;20044;-87
2022/01/01 09:26:03;;;;;;;30.25;13.88;;;;;;;-144.19;100.00;77209.16;5076459;28;20056;-87
2022/01/01 09:28:31;;;;;;;24.77;12.03;;;;;;;-144.19;100.00;77232.78;5076641;28;20052;-88
2022/01/01 09:30:59;;;;;;;28.73;12.57;;;;;;;-144.19;100.00;77199.31;5076050;28;20486;-87
2022/01/01 09:33:29;;;;;;;23.23;11.52;;;;;;;-144.19;100.00;77217.03;5064854;28;20054;-89
2022/01/01 09:36:00;;;;;;;22.15;11.02;;;;;;;-144.19;100.00;77201.28;5075886;28;20054;-88
2022/01/01 09:38:26;;;;;;;21.50;11.25;;;;;;;-144.19;100.00;77203.25;5076107;28;20055;-87
2022/01/01 09:40:54;;;;;;;27.55;11.82;;;;;;;-144.19;100.00;77220.97;5074714;28;20054;-86
2022/01/01 09:43:22;;;;;;;24.38;11.55;;;;;;;-144.19;100.00;77193.41;5074891;28;20128;-87
2022/01/01 09:45:50;;;;;;;23.15;10.52;;;;;;;-144.19;100.00;77191.44;5077102;28;20048;-88
2022/01/01 09:48:21;;;;;;;31.70;10.38;;;;;;;-144.19;100.00;77193.41;5076212;28;20060;-88
2022/01/01 09:50:49;;;;;;;19.80;10.35;;;;;;;-144.19;100.00;77193.41;5067665;28;20056;-87
2022/01/01 09:53:17;;;;;;;22.90;10.13;;;;;;;-144.19;100.00;77199.31;5055919;28;20056;-88
2022/01/01 09:55:44;;;;;;;20.85;10.02;;;;;;;-144.19;100.00;77193.41;5066629;28;20071;-90
2022/01/01 09:58:10;;;;;;;19.35;9.57;;;;;;;-144.19;100.00;77191.44;5077072;28;20055;-92
2022/01/01 10:00:38;;;;;;;20.27;9.15;;;;;;;-144.19;100.00;77187.50;5064981;28;20040;-91
2022/01/01 10:03:05;;;;;;;17.48;9.13;;;;;;;-144.19;100.00;77177.66;5053048;28;20490;-88
2022/01/01 10:05:31;;;;;;;20.73;9.52;;;;;;;-144.19;100.00;77197.34;5070617;28;20103;-91
2022/01/01 10:08:01;;;;;;;19.03;8.70;;;;;;;-144.19;100.00;77207.19;5057698;28;20059;-88
2022/01/01 10:10:27;;;;;;;19.63;9.23;;;;;;;-144.19;100.00;77179.63;5033941;28;20053;-91
2022/01/01 10:12:55;;;;;;;20.33;8.80;;;;;;;-144.19;100.00;77191.44;5035209;28;20061;-86
2022/01/01 10:15:21;;;;;;;;;;;;;;;-144.19;100.00;77189.47;5034972;28;20056;-87
2022/01/01 10:17:47;;;;;;;15.88;7.78;;;;;;;-144.19;100.00;77181.59;5051687;28;20522;-87
2022/01/01 10:20:14;;;;;;;19.27;7.55;;;;;;;-144.19;100.00;77169.78;5051876;28;20068;-88
2022/01/01 10:22:48;;;;;;;19.13;9.40;;;;;;;-144.19;100.00;77177.66;5034341;28;20068;-88
2022/01/01 10:28:04;;;;;;;15.57;7.78;;;;;;;-144.19;100.00;77169.78;5055414;28;20052;-90
2022/01/01 10:30:34;;;;;;;17.75;7.97;;;;;;;-144.19;100.00;77179.63;5037022;28;20060;-87
2022/01/01 10:33:03;;;;;;;17.13;7.20;;;;;;;-144.19;100.00;77189.47;5037682;28;20473;-88
2022/01/01 10:35:41;;;;;;;16.38;7.85;;;;;;;-144.19;100.00;77161.91;5037935;28;20057;-87
2022/01/01 10:38:18;;;;;;;19.33;7.88;;;;;;;-144.19;100.00;77173.72;5037415;28;20080;-87
2022/01/01 10:40:45;;;;;;;18.92;8.85;;;;;;;-144.19;100.00;77171.75;5055740;28;20063;-89
2022/01/01 10:43:15;;;;;;;15.45;7.55;;;;;;;-144.19;100.00;77165.84;5059037;28;20048;-88
2022/01/01 10:45:48;;;;;;;15.98;7.82;;;;;;;-144.19;100.00;77165.84;5075756;28;20083;-88
2022/01/01 10:48:20;;;;;;;18.70;7.68;;;;;;;-144.19;100.00;77159.94;5095943;28;20151;-88
2022/01/01 10:50:49;;;;;;;22.70;8.82;;;;;;;-144.19;100.00;77167.81;5078460;28;20516;-89
2022/01/01 10:53:20;;;;;;;20.48;7.55;;;;;;;-144.19;100.00;77150.09;5077638;28;20048;-88
2022/01/01 10:55:51;;;;;;;17.52;7.15;;;;;;;-144.19;100.00;77159.94;5076403;28;20402;-90
2022/01/01 10:58:19;;;;;;;14.82;6.50;;;;;;;-144.19;100.00;77154.03;5089202;28;20052;-89
2022/01/01 11:00:46;;;;;;;15.60;6.63;;;;;;;-144.19;100.00;77142.22;5055661;28;20045;-87
2022/01/01 11:03:15;;;;;;;;;;;;;;;-144.19;100.00;77122.53;5038070;28;20057;-87